Boras — TCGU — position and weather

sailwx.info

Track history (hours):
 
Tides and Currents Weather Stations Pressure Air Temp Water Temp Dewpoint Dewpoint Depression Visibility Wind Speed Wind Dir Waves Ship Positions

Boras

Last reported at 2017-Jan-11 12:34 UTC. Time now 2017-Jan-16 11:06 UTC.
Position N 39°14' E 026°32'.

Length 103 m; draft 7.3 m.

Type: Cargo ship. MMSI: 271000352.

Date/timePositionNaut miles runAvg speedWind from/ knotsBaromVisibWave heightAir tempDewpointWater temp
2017-Jan-11 12:34N 39°14' E 026°32'2 0.5
2017-Jan-11 07:29N 39°11' E 026°32'3 3.1
2017-Jan-11 06:33N 39°11' E 026°35'9 8.4
2017-Jan-11 05:32N 39°03' E 026°40'7 6.9
2017-Jan-11 04:33N 38°56' E 026°38'8 8.2
2017-Jan-11 03:33N 38°51' E 026°30'8 7.9
2017-Jan-11 02:33N 38°46' E 026°22'6 6.0
2017-Jan-11 01:33N 38°42' E 026°17'6 5.6
2017-Jan-11 00:33N 38°36' E 026°18'6 6.1
2017-Jan-10 23:33N 38°30' E 026°19'8 8.3
2017-Jan-10 22:32N 38°23' E 026°14'  
Track history (hours):
 
Tides and Currents Weather Stations Pressure Air Temp Water Temp Dewpoint Dewpoint Depression Visibility Wind Speed Wind Dir Waves Ship Positions

Boras

Last reported at 2017-Jan-11 12:34 UTC. Time now 2017-Jan-16 11:06 UTC.
Position N 39°14' E 026°32'.

Length 103 m; draft 7.3 m.

Type: Cargo ship. MMSI: 271000352.

Date/timePositionNaut miles runAvg speedWind from/ knotsBaromVisibWave heightAir tempDewpointWater temp
2017-Jan-11 12:34N 39°14' E 026°32'2 0.5
2017-Jan-11 07:29N 39°11' E 026°32'3 3.1
2017-Jan-11 06:33N 39°11' E 026°35'9 8.4
2017-Jan-11 05:32N 39°03' E 026°40'7 6.9
2017-Jan-11 04:33N 38°56' E 026°38'8 8.2
2017-Jan-11 03:33N 38°51' E 026°30'8 7.9
2017-Jan-11 02:33N 38°46' E 026°22'6 6.0
2017-Jan-11 01:33N 38°42' E 026°17'6 5.6
2017-Jan-11 00:33N 38°36' E 026°18'6 6.1
2017-Jan-10 23:33N 38°30' E 026°19'8 8.3
2017-Jan-10 22:32N 38°23' E 026°14'  

Dump ship's entire track history